Time;durP1;ratioP1;P1;durP2;ratioP2;P2;SDS_P1;SDS_P2;PMS_P1;PMS_P2;Temp;Humidity;BMP_temperature;BMP_pressure;BME280_temperature;BME280_humidity;BME280_pressure;Samples;Min_cycle;Max_cycle;Signal;HPM_P1;HPM_P2
2022/11/18 16:14:39;;;;;;;6.82;3.03;;;21.20;50.00;;;;;;5088454;27;20355;-58
2022/11/18 16:17:04;;;;;;;7.05;2.90;;;21.20;52.00;;;;;;5069245;28;20514;-59
2022/11/18 16:19:32;;;;;;;6.22;3.17;;;21.10;52.10;;;;;;5063755;28;20036;-59
2022/11/18 16:21:58;;;;;;;4.85;3.10;;;21.20;52.10;;;;;;5065233;28;20539;-58
2022/11/18 16:24:27;;;;;;;6.65;3.55;;;21.10;52.00;;;;;;5061958;28;20052;-59
2022/11/18 16:26:53;;;;;;;5.38;3.10;;;21.10;51.90;;;;;;5064734;28;20066;-59
2022/11/18 16:29:19;;;;;;;15.35;3.88;;;21.20;52.10;;;;;;5065118;28;20038;-59
2022/11/18 16:31:49;;;;;;;5.57;3.33;;;21.20;51.70;;;;;;5050745;28;20094;-58
2022/11/18 16:34:27;;;;;;;6.38;3.50;;;21.20;51.40;;;;;;5066091;28;20036;-59
2022/11/18 16:36:55;;;;;;;6.18;4.07;;;21.20;50.60;;;;;;5072334;28;20136;-59
2022/11/18 16:39:23;;;;;;;7.22;4.90;;;21.20;51.10;;;;;;5066197;28;20151;-58
2022/11/18 16:41:54;;;;;;;9.98;7.13;;;21.20;51.00;;;;;;5081645;28;20047;-58
2022/11/18 16:44:20;;;;;;;13.98;8.07;;;21.30;51.10;;;;;;5071450;28;20045;-59
2022/11/18 16:46:48;;;;;;;10.32;7.70;;;21.30;51.20;;;;;;5066799;28;20059;-58
2022/11/18 16:49:15;;;;;;;10.52;7.70;;;21.40;51.10;;;;;;5066721;28;20040;-58
2022/11/18 16:51:43;;;;;;;9.63;7.53;;;21.50;51.10;;;;;;5066196;28;20116;-58
2022/11/18 16:54:17;;;;;;;9.65;7.50;;;21.40;50.80;;;;;;5065520;28;20037;-58
2022/11/18 16:56:43;;;;;;;8.13;6.88;;;21.50;50.40;;;;;;5065883;28;20873;-58
2022/11/18 16:59:16;;;;;;;10.52;7.68;;;21.60;50.50;;;;;;5066117;28;20364;-57
2022/11/18 17:01:42;;;;;;;16.75;10.10;;;21.60;50.00;;;;;;5066564;28;20046;-59
2022/11/18 17:04:10;;;;;;;17.30;12.77;;;21.60;50.40;;;;;;5067075;28;20045;-58
2022/11/18 17:06:36;;;;;;;26.20;17.67;;;21.70;50.50;;;;;;5065423;28;20044;-58
2022/11/18 17:09:02;;;;;;;31.23;23.02;;;21.80;50.50;;;;;;5081520;28;20629;-58
2022/11/18 17:11:28;;;;;;;28.70;21.98;;;21.90;50.60;;;;;;5065143;28;20117;-59
2022/11/18 17:13:54;;;;;;;30.90;22.77;;;22.10;50.50;;;;;;5065086;28;20056;-58
2022/11/18 17:16:20;;;;;;;31.17;22.80;;;22.30;50.20;;;;;;5064515;28;20032;-58
2022/11/18 17:18:46;;;;;;;27.33;22.48;;;22.50;49.90;;;;;;5065294;28;20036;-58
2022/11/18 17:21:16;;;;;;;27.00;21.73;;;22.60;49.50;;;;;;5069854;28;20070;-58
2022/11/18 17:23:44;;;;;;;33.23;25.27;;;22.80;49.10;;;;;;5065302;28;20116;-57
2022/11/18 17:26:11;;;;;;;29.73;24.92;;;23.00;49.00;;;;;;5050564;28;20311;-57
2022/11/18 17:28:37;;;;;;;29.23;22.23;;;23.10;48.50;;;;;;5052563;28;20052;-58
2022/11/18 17:31:05;;;;;;;28.00;23.60;;;23.30;48.10;;;;;;5050781;28;20048;-58
2022/11/18 17:33:30;;;;;;;26.65;23.83;;;23.40;47.80;;;;;;5068991;28;20048;-59
2022/11/18 17:36:01;;;;;;;27.60;24.50;;;23.50;47.60;;;;;;5053453;28;20040;-58
2022/11/18 17:38:28;;;;;;;25.33;21.73;;;23.60;47.30;;;;;;5052037;28;20076;-58
2022/11/18 17:40:57;;;;;;;24.70;21.40;;;23.60;47.10;;;;;;5054680;28;20525;-58
2022/11/18 17:43:24;;;;;;;23.25;20.80;;;23.70;46.90;;;;;;5052217;28;20048;-58
2022/11/18 17:45:51;;;;;;;21.17;18.90;;;23.70;46.80;;;;;;5049366;28;20053;-58
2022/11/18 17:48:18;;;;;;;21.08;17.25;;;23.70;46.80;;;;;;5051232;28;20042;-59
2022/11/18 17:50:43;;;;;;;19.85;17.80;;;23.80;46.80;;;;;;5052287;28;20381;-58
2022/11/18 17:53:09;;;;;;;21.02;16.52;;;23.80;46.60;;;;;;5051910;28;20354;-59
2022/11/18 17:55:35;;;;;;;19.02;16.83;;;23.70;46.60;;;;;;5050621;28;20036;-59
2022/11/18 17:58:00;;;;;;;18.95;16.90;;;23.70;46.70;;;;;;5051102;28;20036;-59
2022/11/18 18:00:28;;;;;;;18.23;16.52;;;23.80;46.80;;;;;;5053136;28;20463;-59
2022/11/18 18:02:53;;;;;;;19.38;17.38;;;23.80;46.70;;;;;;5051298;28;21043;-58
2022/11/18 18:05:19;;;;;;;19.60;17.55;;;23.80;46.60;;;;;;5051197;28;20044;-59
2022/11/18 18:07:47;;;;;;;18.33;16.42;;;23.80;46.60;;;;;;5049357;28;20432;-59
2022/11/18 18:10:14;;;;;;;16.90;15.30;;;23.80;46.70;;;;;;5050823;28;20036;-58
2022/11/18 18:15:24;;;;;;;17.00;15.30;;;23.70;46.70;;;;;;5049539;28;20059;-58
2022/11/18 18:17:49;;;;;;;16.05;14.65;;;23.60;46.80;;;;;;5035249;28;20495;-59
2022/11/18 18:20:15;;;;;;;15.48;13.45;;;23.60;46.80;;;;;;5051665;28;20499;-59
2022/11/18 18:22:41;;;;;;;14.40;12.90;;;23.60;46.70;;;;;;5050444;28;20067;-59
2022/11/18 18:25:07;;;;;;;18.70;12.68;;;23.60;46.60;;;;;;5057773;28;20044;-59
2022/11/18 18:27:32;;;;;;;13.00;11.77;;;23.60;46.70;;;;;;5036575;28;20032;-59
2022/11/18 18:29:58;;;;;;;12.18;10.80;;;23.50;46.80;;;;;;5053916;28;20581;-59
2022/11/18 18:32:23;;;;;;;11.57;10.35;;;23.50;46.90;;;;;;5051340;28;20890;-59
2022/11/18 18:34:49;;;;;;;11.27;10.27;;;23.40;46.80;;;;;;5067324;28;20095;-59
2022/11/18 18:37:15;;;;;;;11.88;10.20;;;23.40;46.90;;;;;;5047855;28;20037;-59
2022/11/18 18:39:40;;;;;;;11.13;10.07;;;23.30;46.90;;;;;;5056360;28;20036;-59
2022/11/18 18:42:06;;;;;;;11.65;8.95;;;23.30;47.00;;;;;;5064575;28;20395;-60
2022/11/18 18:47:16;;;;;;;9.57;7.70;;;23.30;46.20;;;;;;5052296;28;20055;-59
2022/11/18 18:49:41;;;;;;;8.43;7.63;;;23.20;45.90;;;;;;5051223;28;20404;-59
2022/11/18 18:52:07;;;;;;;9.98;7.05;;;23.20;45.70;;;;;;5046987;28;20037;-59
2022/11/18 18:54:33;;;;;;;7.72;6.88;;;23.10;45.60;;;;;;5029171;28;20044;-59
2022/11/18 18:56:59;;;;;;;6.28;5.72;;;23.10;45.40;;;;;;5049054;28;20575;-59
2022/11/18 18:59:24;;;;;;;6.35;5.70;;;23.10;45.40;;;;;;5051195;28;20439;-58
2022/11/18 19:01:50;;;;;;;7.03;5.50;;;23.00;45.30;;;;;;5048788;28;20148;-59
2022/11/18 19:04:16;;;;;;;6.47;5.78;;;23.10;45.20;;;;;;5051436;28;20041;-59
2022/11/18 19:06:45;;;;;;;6.45;5.50;;;23.00;45.20;;;;;;5048692;28;20036;-59
2022/11/18 19:09:11;;;;;;;6.93;5.55;;;23.00;45.90;;;;;;5032769;28;20368;-60
2022/11/18 19:14:23;;;;;;;6.65;4.80;;;22.90;45.20;;;;;;5049272;28;20138;-59
2022/11/18 19:16:49;;;;;;;8.68;4.90;;;22.90;45.30;;;;;;5050198;28;20040;-58
2022/11/18 19:20:32;;;;;;;5.30;4.35;;;22.90;45.40;;;;;;5050313;28;20499;-58
2022/11/18 19:22:04;;;;;;;7.47;4.88;;;22.90;45.40;;;;;;5049204;28;20044;-58
2022/11/18 19:24:29;;;;;;;7.15;4.72;;;22.80;45.40;;;;;;5050688;28;20100;-57
2022/11/18 19:26:55;;;;;;;4.78;4.38;;;22.80;45.30;;;;;;5050729;28;20732;-59
2022/11/18 19:29:20;;;;;;;6.93;4.38;;;22.80;45.20;;;;;;5050486;28;20049;-58
2022/11/18 19:31:46;;;;;;;5.97;4.85;;;22.80;45.30;;;;;;5052152;28;20159;-58
2022/11/18 19:34:12;;;;;;;6.57;4.68;;;22.80;45.30;;;;;;5052076;28;20348;-59
2022/11/18 19:36:37;;;;;;;4.53;4.13;;;22.70;45.30;;;;;;5046691;28;20044;-59
2022/11/18 19:39:03;;;;;;;4.18;3.78;;;22.70;45.40;;;;;;5051060;28;20031;-58
2022/11/18 19:41:29;;;;;;;5.97;4.00;;;22.70;45.40;;;;;;5050946;28;20535;-58
2022/11/18 19:43:54;;;;;;;5.20;4.25;;;22.60;45.30;;;;;;5051966;28;20045;-57
2022/11/18 19:46:20;;;;;;;5.03;3.95;;;22.60;45.50;;;;;;5049385;28;20527;-57
2022/11/18 19:48:47;;;;;;;4.38;3.40;;;22.60;45.40;;;;;;5047511;28;20074;-57
2022/11/18 19:51:13;;;;;;;4.22;3.47;;;22.60;45.50;;;;;;5048569;28;20098;-58
2022/11/18 19:53:40;;;;;;;3.75;3.42;;;22.60;45.50;;;;;;5051007;28;20059;-56
2022/11/18 19:56:12;;;;;;;5.00;3.53;;;22.60;45.50;;;;;;5033775;28;20156;-58
2022/11/18 19:58:39;;;;;;;6.65;3.88;;;22.60;45.40;;;;;;5049621;28;20564;-58
2022/11/18 20:01:09;;;;;;;4.65;3.08;;;22.60;45.50;;;;;;5050215;28;20037;-58
2022/11/18 20:03:35;;;;;;;4.75;3.00;;;22.60;45.60;;;;;;5052411;28;20051;-58
2022/11/18 20:06:01;;;;;;;6.30;3.17;;;22.50;45.50;;;;;;5051112;28;20040;-58
2022/11/18 20:08:31;;;;;;;5.47;3.22;;;22.60;45.50;;;;;;5051310;28;20052;-58
2022/11/18 20:11:00;;;;;;;5.07;3.40;;;22.50;45.40;;;;;;5037030;28;20040;-57
2022/11/18 20:13:25;;;;;;;5.03;3.20;;;22.50;45.40;;;;;;5045586;28;20059;-56
2022/11/18 20:15:51;;;;;;;3.13;2.90;;;22.50;46.10;;;;;;5048551;28;20033;-57
2022/11/18 20:18:20;;;;;;;3.97;3.33;;;22.50;45.30;;;;;;5048772;28;20040;-58
2022/11/18 20:20:46;;;;;;;3.35;3.05;;;22.40;45.30;;;;;;5054608;28;20033;-58
2022/11/18 20:23:12;;;;;;;2.95;2.65;;;22.40;45.30;;;;;;5048686;28;20079;-58
2022/11/18 20:25:38;;;;;;;3.35;3.00;;;22.40;45.40;;;;;;5047914;28;20067;-58
2022/11/18 20:28:03;;;;;;;3.38;2.78;;;22.30;45.30;;;;;;5050127;28;20048;-58
2022/11/18 20:30:29;;;;;;;4.07;3.00;;;22.30;45.40;;;;;;5049631;28;20057;-58
2022/11/18 20:32:58;;;;;;;2.95;2.67;;;22.30;45.40;;;;;;5031619;28;20446;-58
2022/11/18 20:35:23;;;;;;;4.45;3.20;;;22.20;45.40;;;;;;5051248;28;20044;-57
2022/11/18 20:37:49;;;;;;;4.30;3.17;;;22.20;45.40;;;;;;5047753;28;20037;-58
2022/11/18 20:40:15;;;;;;;3.08;2.80;;;22.20;45.40;;;;;;5047447;28;20043;-58
2022/11/18 20:45:25;;;;;;;3.25;2.95;;;22.10;45.40;;;;;;5047607;28;20195;-58
2022/11/18 20:47:50;;;;;;;3.55;3.15;;;22.10;45.50;;;;;;5030386;28;20055;-58
2022/11/18 20:50:16;;;;;;;4.25;3.25;;;22.00;45.40;;;;;;5030937;28;20842;-57
2022/11/18 20:52:42;;;;;;;3.72;3.00;;;22.00;45.40;;;;;;5050513;28;20033;-58
2022/11/18 20:55:08;;;;;;;3.85;3.50;;;22.00;45.40;;;;;;5050067;28;20037;-57
2022/11/18 20:57:34;;;;;;;3.35;3.03;;;22.00;45.50;;;;;;5048851;28;20079;-57
2022/11/18 21:00:00;;;;;;;3.80;3.10;;;22.00;45.60;;;;;;5050102;28;20148;-58
2022/11/18 21:02:25;;;;;;;3.53;3.10;;;22.00;45.50;;;;;;5053289;28;20483;-58
2022/11/18 21:04:51;;;;;;;6.95;3.40;;;22.00;45.50;;;;;;5052924;28;20047;-58
2022/11/18 21:07:16;;;;;;;4.65;3.13;;;22.00;45.50;;;;;;5052216;28;20471;-58
2022/11/18 21:09:42;;;;;;;3.80;3.42;;;22.00;45.50;;;;;;5036887;28;20536;-58
2022/11/18 21:12:08;;;;;;;3.10;2.90;;;22.00;45.50;;;;;;5037046;28;20127;-58
2022/11/18 21:14:33;;;;;;;3.50;3.20;;;22.00;45.60;;;;;;5057370;28;20175;-58
2022/11/18 21:17:03;;;;;;;3.90;2.95;;;22.10;45.60;;;;;;5051767;28;20122;-57
2022/11/18 21:19:29;;;;;;;3.40;3.10;;;22.10;45.60;;;;;;5051136;28;20044;-58
2022/11/18 21:21:55;;;;;;;3.45;3.15;;;22.10;45.60;;;;;;5050768;28;20356;-58
2022/11/18 21:24:28;;;;;;;3.45;3.17;;;22.10;45.60;;;;;;5050914;28;20226;-58
2022/11/18 21:26:56;;;;;;;3.50;3.20;;;22.10;45.60;;;;;;5033184;28;20509;-58
2022/11/18 21:29:25;;;;;;;3.15;2.88;;;22.10;45.60;;;;;;5056603;28;20053;-59
2022/11/18 21:31:52;;;;;;;4.15;3.33;;;22.10;45.60;;;;;;5052457;28;20083;-60
2022/11/18 21:34:18;;;;;;;3.33;2.95;;;22.10;45.60;;;;;;5051428;28;20040;-58
2022/11/18 21:36:44;;;;;;;3.08;2.88;;;22.10;45.70;;;;;;5051198;28;20040;-59
2022/11/18 21:39:11;;;;;;;3.25;3.05;;;22.10;45.60;;;;;;5050196;28;20049;-58
2022/11/18 21:41:37;;;;;;;3.65;3.35;;;22.10;45.60;;;;;;5052716;28;20155;-60
2022/11/18 21:44:06;;;;;;;3.47;3.03;;;22.10;45.60;;;;;;5050854;28;20761;-59
2022/11/18 21:46:34;;;;;;;3.00;2.80;;;22.10;45.70;;;;;;5064301;28;20044;-59
2022/11/18 21:48:59;;;;;;;3.88;3.55;;;22.00;45.60;;;;;;5049751;28;20508;-59
2022/11/18 21:51:25;;;;;;;5.78;3.30;;;22.00;45.60;;;;;;5049089;28;20064;-57
2022/11/18 21:53:51;;;;;;;2.95;2.65;;;22.00;45.60;;;;;;5051722;28;20036;-59
2022/11/18 21:56:19;;;;;;;6.57;3.10;;;21.90;45.60;;;;;;5049536;28;20515;-59
2022/11/18 21:58:46;;;;;;;3.65;3.25;;;21.90;45.60;;;;;;5052242;28;20041;-59
2022/11/18 22:01:14;;;;;;;3.28;2.97;;;21.90;45.70;;;;;;5053826;28;20048;-58
2022/11/18 22:03:43;;;;;;;3.63;3.30;;;21.90;45.70;;;;;;5051145;28;20051;-59
2022/11/18 22:06:10;;;;;;;3.58;3.28;;;21.90;45.70;;;;;;5050321;28;20053;-58
2022/11/18 22:08:37;;;;;;;3.53;3.22;;;21.80;45.60;;;;;;5055553;28;20032;-59
2022/11/18 22:11:05;;;;;;;2.95;2.75;;;21.80;45.70;;;;;;5049629;28;20112;-59
2022/11/18 22:13:31;;;;;;;3.38;3.17;;;21.80;45.60;;;;;;5051877;28;20052;-59
2022/11/18 22:16:04;;;;;;;3.22;3.03;;;21.80;45.70;;;;;;5047273;28;20132;-59
2022/11/18 22:18:35;;;;;;;3.28;3.08;;;21.70;45.60;;;;;;5050348;28;20053;-60
2022/11/18 22:21:03;;;;;;;3.47;3.17;;;21.70;45.60;;;;;;5048443;28;20549;-59
2022/11/18 22:23:30;;;;;;;3.40;3.03;;;21.70;45.70;;;;;;5065682;28;20056;-59
2022/11/18 22:25:58;;;;;;;3.17;2.97;;;21.70;45.80;;;;;;5049719;28;20071;-58
2022/11/18 22:28:24;;;;;;;3.55;3.35;;;21.70;45.70;;;;;;5049351;28;20044;-59
2022/11/18 22:30:49;;;;;;;2.85;2.65;;;21.70;45.60;;;;;;5055306;28;20380;-58
2022/11/18 22:33:15;;;;;;;3.28;3.08;;;21.60;45.70;;;;;;5049661;28;20066;-58
2022/11/18 22:35:41;;;;;;;3.63;3.25;;;21.60;45.70;;;;;;5037169;28;20910;-58
2022/11/18 22:38:08;;;;;;;3.70;3.40;;;21.60;45.70;;;;;;5049819;28;20083;-57
2022/11/18 22:40:34;;;;;;;3.72;3.42;;;21.50;45.70;;;;;;5052248;28;20048;-59
2022/11/18 22:43:00;;;;;;;3.40;3.10;;;21.50;45.60;;;;;;5048102;28;20453;-58
2022/11/18 22:45:26;;;;;;;4.97;3.15;;;21.50;45.70;;;;;;5067306;28;20044;-59
2022/11/18 22:47:52;;;;;;;4.32;3.45;;;21.50;45.70;;;;;;5051654;28;20048;-59
2022/11/18 22:50:17;;;;;;;3.65;3.33;;;21.50;45.70;;;;;;5057122;28;20102;-58
2022/11/18 22:52:43;;;;;;;3.28;3.08;;;21.40;45.70;;;;;;5045225;28;20107;-58
2022/11/18 22:55:09;;;;;;;3.38;3.13;;;21.40;45.60;;;;;;5054861;28;20040;-58
2022/11/18 22:57:36;;;;;;;3.65;3.35;;;21.40;45.60;;;;;;5038282;28;20069;-58
2022/11/18 23:00:05;;;;;;;3.42;3.15;;;21.40;45.50;;;;;;5054366;28;20138;-56
2022/11/18 23:02:31;;;;;;;6.60;3.75;;;21.30;45.40;;;;;;5052342;28;20036;-58
2022/11/18 23:04:56;;;;;;;4.65;3.17;;;21.30;45.60;;;;;;5060312;28;20063;-58
2022/11/18 23:07:22;;;;;;;4.00;3.28;;;21.30;45.80;;;;;;5052682;28;20063;-58
2022/11/18 23:09:48;;;;;;;12.63;3.72;;;21.40;45.70;;;;;;5053288;28;20171;-58
2022/11/18 23:14:58;;;;;;;3.20;2.90;;;21.40;45.50;;;;;;5054007;28;20084;-58
2022/11/18 23:17:23;;;;;;;3.83;3.50;;;21.50;45.40;;;;;;5051837;28;20083;-57
2022/11/18 23:19:49;;;;;;;3.88;3.45;;;21.50;45.30;;;;;;5052063;28;20095;-57
2022/11/18 23:22:15;;;;;;;3.60;3.30;;;21.50;45.10;;;;;;5053765;28;20041;-58
2022/11/18 23:24:40;;;;;;;3.35;3.13;;;21.50;45.10;;;;;;5050340;28;20128;-57
2022/11/18 23:27:06;;;;;;;3.80;3.50;;;21.50;44.90;;;;;;5052844;28;20065;-58
2022/11/18 23:29:32;;;;;;;3.85;3.55;;;21.50;44.90;;;;;;5054986;28;20045;-59
2022/11/18 23:31:57;;;;;;;3.67;3.38;;;21.50;44.80;;;;;;5058996;28;20036;-58
2022/11/18 23:34:23;;;;;;;3.45;3.15;;;21.50;44.80;;;;;;5051766;28;20036;-58
2022/11/18 23:36:49;;;;;;;3.17;2.88;;;21.50;44.70;;;;;;5053178;28;20032;-57
2022/11/18 23:39:14;;;;;;;3.28;3.08;;;21.50;44.60;;;;;;5042375;28;20072;-58
2022/11/18 23:41:40;;;;;;;4.00;3.63;;;21.50;44.60;;;;;;5058054;28;20119;-59
2022/11/18 23:44:06;;;;;;;3.58;3.30;;;21.50;44.60;;;;;;5048018;28;20041;-58
2022/11/18 23:46:32;;;;;;;4.00;3.60;;;21.50;44.40;;;;;;5051385;28;20331;-58
2022/11/18 23:48:58;;;;;;;3.65;3.35;;;21.50;44.40;;;;;;5050280;28;20041;-57
2022/11/18 23:51:25;;;;;;;3.55;3.25;;;21.40;44.40;;;;;;5053401;28;20078;-59
2022/11/18 23:53:55;;;;;;;3.00;2.80;;;21.40;44.40;;;;;;5042057;28;20044;-57
2022/11/18 23:56:23;;;;;;;3.13;2.93;;;21.40;44.20;;;;;;5052345;28;20044;-58
2022/11/18 23:58:52;;;;;;;3.38;3.08;;;21.40;44.30;;;;;;5052636;28;20126;-58
